Salisbury, Massachusetts
Current Conditions -  °F | °C
As of 11:22 PM on Monday 22 Dec 2014 (Local Time) from KLWM Reporting Station
Haze Haze  
Wind Chill: 29°   Ceiling: 5000
Heat Index: 35°   Visibility: 3mi
Dew Point: 34°   Wind: 7mph
Humidity: 96%   Direction: 40°NE
Pressure: 30.33"   Gusts: NA
Location:  42.83°N, 70.84°W
Report Text: KLWM 230422Z AUTO 04006KT 3SM BR FEW002 OVC050 02/01 A3033 RMK AO2 T00170011
Loading
Personal Weather Stations






























Interactive Weather Map New forecast layout! Learn more

10-Day Weather Forecast

Advertisements
Track Severe Weather on mobile